Nuiqsut Airport
PAQT : now visible

Airfield :











YOU CAN JOIN US ON...

 
LOGIN :

Register | Disclaimer

   EN    FR    IT 

 









Legend :    VFR   Marginal VFR   IFR   Intensive IFR   Very Intensive IFR
Visi :
Ceiling :
>= 8 km
>= 3000ft
5 to 8 km
1000 to 3000 ft
1500m to 5 km
500 to 1000 ft
800 to 1500m
200 to 500 ft
< 800m
< 200 ft
Symbols :   Thunderstorms  Fog  Heavy snow  Heavy precipitations  Wind > 20 kt






- Airport Elevation : 38 ft
- IATA code : AQT


PAQT - Nuiqsut

CURRENT METAR :
  • 242151Z 02017KT 6SM BR CLR M23/M25 A3024 RMK (SCC FSS)

EXPIRED METARs :
  • 242051Z 03015KT 5SM BR CLR M23/M25 A3022 RMK (SCC FSS)
  • 241954Z 03015KT 4SM BR CLR M23/M25 A3022 RMK (SCC FSS)

TAF PAQT
Valid from the 24 at 18:00 until the 25 at 18:00 UTC


241737Z 2418/2518 03014KT P6SM BKN009
FM242200 05014KT P6SM SCT009
FM250400 06018KT 3SM BR OVC004 AMD NOT SKED
PAZA FIR / North America



MET'MAP, your aeronautical weather chart ! - Copyright ORBIFLY December 2007 - Disclaimer

ORBIFLY MET'MAP TEAM :

Programming & Development : Alexandra Zaïnal
Concept & original design : Baudouin d'Aumeries
Assistance for programming : Marc-Olivier Méhu
Technical & hardware support : Manuel Goepfert

Contact : metmap@orbifly.com




SOURCES & CREDITS :

   NOAA       Earth
Advisory